Roanoke, VA (24001)

10:16 AM EST on December 06, 2016 (GMT -0500)
APRSWXNET | | Change Station

Elev 1499 ft 37.25 °N, 79.93 °W | Updated 16 minutes ago

Rain
Rain Mist
38 °F
Feels Like 38 °F
N
0
Wind Variable Wind from NNE
Gusts 10.0 mph

Today
High -- | Low -- °F
--% Chance of Precip.
Yesterday
High -- | Low -- °F
Precip. -- in
Pressure 29.97 in
Visibility 4.0 miles
Clouds Scattered Clouds 1400 ft
Mostly Cloudy 1900 ft
Overcast 3500 ft
Windchill 38 °F
Dew Point 37 °F
Humidity 98%
Rainfall in
Snow Depth Not available.
7:19 AM 5:02 PM
Waxing Crescent, 42% visible
SPECI KROA 061501Z 09009KT 4SM RA BR SCT014 BKN019 OVC035 05/04 A2997 RMK AO2 P0001 T00500039
Pressure 29.97 in
Visibility 4.0 miles
Clouds Scattered Clouds 1400 ft
Mostly Cloudy 1900 ft
Overcast 3500 ft
Windchill 38 °F
Dew Point 37 °F
Humidity 98%
Rainfall in
Snow Depth Not available.
7:19 AM 5:02 PM
Waxing Crescent, 42% visible
SPECI KROA 061501Z 09009KT 4SM RA BR SCT014 BKN019 OVC035 05/04 A2997 RMK AO2 P0001 T00500039

10-Day Weather Forecast

Almanac

Astronomy

Dec. 06, 2016 Rise Set
Actual Time
Civil Twilight
Nautical Twilight
Astronomical Twilight
Moon
Length of Visible Light
Length of Day
Tomorrow will be .
, % of the Moon is Illuminated

Today's Extremes

State Highs State Lows

Community

WunderPhotos

Upload Photos

1,955,954 photos uploaded!

WunderBlog® & News

Nearby

Air Quality

  Air Quality AQ Index Pollutant
Not available.

Snow Depth

Station Depth Elevation

Earthquake Activity

City Distance Mag. Time & Date
Minimum magnitude displayed is 2.5.

Coastal Water Temperatures

Place Temperature

Stations

Nearby Weather Stations

Station Location Temp. Windchill Dew Point Humidity Wind Precip. Elev Updated Type
                   

Watches & Warnings

There are currently no watches in effect.